Terminal Aerodrome Forecast
Issued by NWS Cleveland, OH

Home | Current Version | Previous Version | Graphics & Text | Print | Product List | Glossary Off
Versions: 1 2 3 4 5 6 7 8 9 10 11 12 13 14 15 16 17 18

000
FTUS41 KCLE 262049 AAB
TAFCLE
TAF AMD
KCLE 262049Z 2621/2724 22005KT P6SM BKN100
      TEMPO 2622/2623 2SM TSRA BKN035CB
     FM270100 16005KT P6SM BKN250
      TEMPO 2709/2713 4SM BR
     FM271500 30004KT P6SM SCT050
     FM271800 34006KT P6SM SCT250=

USA.gov is the U.S. government's official web portal to all federal, state and local government web resources and services.